sensor_id;sensor_type;location;lat;lon;timestamp;P1;durP1;ratioP1;P2;durP2;ratioP2
47555;SDS011;33291;46.222;26.460;2023-06-22T00:02:16;11.45;;;8.00;;
47555;SDS011;33291;46.222;26.460;2023-06-22T00:04:42;11.65;;;8.55;;
47555;SDS011;33291;46.222;26.460;2023-06-22T00:07:08;13.02;;;8.52;;
47555;SDS011;33291;46.222;26.460;2023-06-22T00:09:33;9.48;;;8.38;;
47555;SDS011;33291;46.222;26.460;2023-06-22T00:11:59;13.68;;;8.18;;
47555;SDS011;33291;46.222;26.460;2023-06-22T00:14:25;12.00;;;8.07;;
47555;SDS011;33291;46.222;26.460;2023-06-22T00:16:50;12.57;;;7.97;;
47555;SDS011;33291;46.222;26.460;2023-06-22T00:19:22;10.82;;;8.70;;
47555;SDS011;33291;46.222;26.460;2023-06-22T00:21:48;15.02;;;8.80;;
47555;SDS011;33291;46.222;26.460;2023-06-22T00:24:18;12.35;;;8.25;;
47555;SDS011;33291;46.222;26.460;2023-06-22T00:26:47;13.15;;;8.77;;
47555;SDS011;33291;46.222;26.460;2023-06-22T00:29:13;16.35;;;8.77;;
47555;SDS011;33291;46.222;26.460;2023-06-22T00:31:39;12.68;;;7.97;;
47555;SDS011;33291;46.222;26.460;2023-06-22T00:34:05;12.65;;;8.65;;
47555;SDS011;33291;46.222;26.460;2023-06-22T00:36:31;10.60;;;8.00;;
47555;SDS011;33291;46.222;26.460;2023-06-22T00:38:57;14.73;;;8.48;;
47555;SDS011;33291;46.222;26.460;2023-06-22T00:41:22;10.13;;;7.93;;
47555;SDS011;33291;46.222;26.460;2023-06-22T00:43:48;10.18;;;8.35;;
47555;SDS011;33291;46.222;26.460;2023-06-22T00:46:13;12.25;;;8.13;;
47555;SDS011;33291;46.222;26.460;2023-06-22T00:48:39;17.52;;;8.60;;
47555;SDS011;33291;46.222;26.460;2023-06-22T00:51:06;12.15;;;8.55;;
47555;SDS011;33291;46.222;26.460;2023-06-22T00:53:32;10.05;;;8.77;;
47555;SDS011;33291;46.222;26.460;2023-06-22T00:56:00;9.88;;;8.50;;
47555;SDS011;33291;46.222;26.460;2023-06-22T00:58:26;9.82;;;8.77;;
47555;SDS011;33291;46.222;26.460;2023-06-22T01:00:51;12.48;;;8.13;;
47555;SDS011;33291;46.222;26.460;2023-06-22T01:03:17;9.10;;;8.20;;
47555;SDS011;33291;46.222;26.460;2023-06-22T01:05:43;12.60;;;9.00;;
47555;SDS011;33291;46.222;26.460;2023-06-22T01:13:54;13.10;;;8.60;;
47555;SDS011;33291;46.222;26.460;2023-06-22T01:16:34;11.13;;;8.10;;
47555;SDS011;33291;46.222;26.460;2023-06-22T01:19:07;14.45;;;8.25;;
47555;SDS011;33291;46.222;26.460;2023-06-22T01:21:42;10.25;;;8.35;;
47555;SDS011;33291;46.222;26.460;2023-06-22T01:24:23;15.18;;;7.95;;
47555;SDS011;33291;46.222;26.460;2023-06-22T01:27:08;13.52;;;8.65;;
47555;SDS011;33291;46.222;26.460;2023-06-22T01:29:55;14.75;;;8.25;;
47555;SDS011;33291;46.222;26.460;2023-06-22T01:32:30;9.63;;;8.30;;
47555;SDS011;33291;46.222;26.460;2023-06-22T01:34:58;11.23;;;8.82;;
47555;SDS011;33291;46.222;26.460;2023-06-22T01:37:26;15.07;;;9.23;;
47555;SDS011;33291;46.222;26.460;2023-06-22T01:39:53;11.73;;;8.23;;
47555;SDS011;33291;46.222;26.460;2023-06-22T01:42:21;9.88;;;7.85;;
47555;SDS011;33291;46.222;26.460;2023-06-22T01:44:48;10.43;;;8.50;;
47555;SDS011;33291;46.222;26.460;2023-06-22T01:47:14;10.40;;;8.30;;
47555;SDS011;33291;46.222;26.460;2023-06-22T01:49:40;9.77;;;7.75;;
47555;SDS011;33291;46.222;26.460;2023-06-22T01:52:06;9.77;;;7.80;;
47555;SDS011;33291;46.222;26.460;2023-06-22T01:54:32;13.88;;;8.77;;
47555;SDS011;33291;46.222;26.460;2023-06-22T01:56:58;9.55;;;8.13;;
47555;SDS011;33291;46.222;26.460;2023-06-22T02:02:28;10.98;;;8.13;;
47555;SDS011;33291;46.222;26.460;2023-06-22T02:05:02;9.52;;;8.25;;
47555;SDS011;33291;46.222;26.460;2023-06-22T02:07:32;9.80;;;7.80;;
47555;SDS011;33291;46.222;26.460;2023-06-22T02:10:02;12.77;;;8.20;;
47555;SDS011;33291;46.222;26.460;2023-06-22T02:12:31;15.10;;;8.43;;
47555;SDS011;33291;46.222;26.460;2023-06-22T02:14:59;9.95;;;8.50;;
47555;SDS011;33291;46.222;26.460;2023-06-22T02:17:26;13.02;;;8.10;;
47555;SDS011;33291;46.222;26.460;2023-06-22T02:19:51;12.20;;;8.27;;
47555;SDS011;33291;46.222;26.460;2023-06-22T02:22:17;10.98;;;8.05;;
47555;SDS011;33291;46.222;26.460;2023-06-22T02:24:43;11.80;;;8.27;;
47555;SDS011;33291;46.222;26.460;2023-06-22T02:27:08;13.55;;;7.93;;
47555;SDS011;33291;46.222;26.460;2023-06-22T02:29:34;13.57;;;8.93;;
47555;SDS011;33291;46.222;26.460;2023-06-22T02:31:59;10.85;;;8.10;;
47555;SDS011;33291;46.222;26.460;2023-06-22T02:34:24;12.50;;;8.50;;
47555;SDS011;33291;46.222;26.460;2023-06-22T02:36:50;10.57;;;8.30;;
47555;SDS011;33291;46.222;26.460;2023-06-22T02:39:19;10.43;;;8.80;;
47555;SDS011;33291;46.222;26.460;2023-06-22T02:41:47;11.38;;;8.40;;
47555;SDS011;33291;46.222;26.460;2023-06-22T02:44:13;10.45;;;8.75;;
47555;SDS011;33291;46.222;26.460;2023-06-22T02:46:38;13.38;;;8.52;;
47555;SDS011;33291;46.222;26.460;2023-06-22T02:49:04;8.95;;;8.00;;
47555;SDS011;33291;46.222;26.460;2023-06-22T02:51:30;10.02;;;7.60;;
47555;SDS011;33291;46.222;26.460;2023-06-22T02:53:58;11.15;;;8.82;;
47555;SDS011;33291;46.222;26.460;2023-06-22T02:56:24;9.63;;;8.60;;
47555;SDS011;33291;46.222;26.460;2023-06-22T02:58:49;8.95;;;7.80;;
47555;SDS011;33291;46.222;26.460;2023-06-22T03:01:15;16.98;;;8.73;;
47555;SDS011;33291;46.222;26.460;2023-06-22T03:03:41;12.65;;;8.57;;
47555;SDS011;33291;46.222;26.460;2023-06-22T03:06:06;11.52;;;8.63;;
47555;SDS011;33291;46.222;26.460;2023-06-22T03:08:31;12.32;;;8.27;;
47555;SDS011;33291;46.222;26.460;2023-06-22T03:10:57;10.32;;;8.38;;
47555;SDS011;33291;46.222;26.460;2023-06-22T03:13:23;8.45;;;7.40;;
47555;SDS011;33291;46.222;26.460;2023-06-22T03:15:49;12.10;;;9.18;;
47555;SDS011;33291;46.222;26.460;2023-06-22T03:18:14;8.88;;;7.25;;
47555;SDS011;33291;46.222;26.460;2023-06-22T03:20:40;10.23;;;8.25;;
47555;SDS011;33291;46.222;26.460;2023-06-22T03:23:06;10.30;;;8.38;;
47555;SDS011;33291;46.222;26.460;2023-06-22T03:25:31;10.38;;;8.40;;
47555;SDS011;33291;46.222;26.460;2023-06-22T03:27:58;10.63;;;8.07;;
47555;SDS011;33291;46.222;26.460;2023-06-22T03:30:25;12.80;;;8.80;;
47555;SDS011;33291;46.222;26.460;2023-06-22T03:32:50;9.80;;;8.80;;
47555;SDS011;33291;46.222;26.460;2023-06-22T03:35:16;14.65;;;8.40;;
47555;SDS011;33291;46.222;26.460;2023-06-22T03:37:41;10.98;;;9.45;;
47555;SDS011;33291;46.222;26.460;2023-06-22T03:40:07;8.98;;;7.88;;
47555;SDS011;33291;46.222;26.460;2023-06-22T03:42:33;9.32;;;8.32;;
47555;SDS011;33291;46.222;26.460;2023-06-22T03:45:00;11.52;;;8.23;;
47555;SDS011;33291;46.222;26.460;2023-06-22T03:47:26;10.85;;;7.82;;
47555;SDS011;33291;46.222;26.460;2023-06-22T03:49:52;9.95;;;8.35;;
47555;SDS011;33291;46.222;26.460;2023-06-22T03:52:20;11.02;;;7.93;;
47555;SDS011;33291;46.222;26.460;2023-06-22T03:54:47;12.38;;;8.50;;
47555;SDS011;33291;46.222;26.460;2023-06-22T03:57:13;10.10;;;8.00;;
47555;SDS011;33291;46.222;26.460;2023-06-22T03:59:38;9.65;;;8.05;;
47555;SDS011;33291;46.222;26.460;2023-06-22T04:02:04;9.10;;;7.80;;
47555;SDS011;33291;46.222;26.460;2023-06-22T04:04:29;9.63;;;8.20;;
47555;SDS011;33291;46.222;26.460;2023-06-22T04:06:55;9.90;;;7.65;;
47555;SDS011;33291;46.222;26.460;2023-06-22T04:09:20;12.40;;;7.53;;
47555;SDS011;33291;46.222;26.460;2023-06-22T04:11:46;11.27;;;8.10;;
47555;SDS011;33291;46.222;26.460;2023-06-22T04:14:12;9.25;;;8.30;;
47555;SDS011;33291;46.222;26.460;2023-06-22T04:16:38;12.68;;;8.48;;
47555;SDS011;33291;46.222;26.460;2023-06-22T04:19:03;10.20;;;8.40;;
47555;SDS011;33291;46.222;26.460;2023-06-22T04:21:28;11.70;;;7.93;;
47555;SDS011;33291;46.222;26.460;2023-06-22T04:23:54;12.65;;;8.25;;
47555;SDS011;33291;46.222;26.460;2023-06-22T04:26:19;9.10;;;8.20;;
47555;SDS011;33291;46.222;26.460;2023-06-22T04:28:46;17.80;;;8.57;;
47555;SDS011;33291;46.222;26.460;2023-06-22T04:31:16;14.73;;;8.52;;
47555;SDS011;33291;46.222;26.460;2023-06-22T04:33:45;10.65;;;8.32;;
47555;SDS011;33291;46.222;26.460;2023-06-22T04:36:10;10.52;;;8.27;;
47555;SDS011;33291;46.222;26.460;2023-06-22T04:38:38;9.30;;;8.18;;
47555;SDS011;33291;46.222;26.460;2023-06-22T04:41:04;12.43;;;8.50;;
47555;SDS011;33291;46.222;26.460;2023-06-22T04:43:30;9.40;;;8.40;;
47555;SDS011;33291;46.222;26.460;2023-06-22T04:45:58;12.10;;;8.52;;
47555;SDS011;33291;46.222;26.460;2023-06-22T04:48:28;12.10;;;8.57;;
47555;SDS011;33291;46.222;26.460;2023-06-22T04:50:58;8.75;;;7.85;;
47555;SDS011;33291;46.222;26.460;2023-06-22T04:53:28;9.68;;;8.18;;
47555;SDS011;33291;46.222;26.460;2023-06-22T04:55:54;8.88;;;7.97;;
47555;SDS011;33291;46.222;26.460;2023-06-22T04:58:20;8.85;;;7.95;;
47555;SDS011;33291;46.222;26.460;2023-06-22T05:00:46;12.85;;;9.05;;
47555;SDS011;33291;46.222;26.460;2023-06-22T05:03:12;13.32;;;7.50;;
47555;SDS011;33291;46.222;26.460;2023-06-22T05:05:37;10.10;;;8.65;;
47555;SDS011;33291;46.222;26.460;2023-06-22T05:08:03;14.57;;;7.95;;
47555;SDS011;33291;46.222;26.460;2023-06-22T05:10:32;9.73;;;7.43;;
47555;SDS011;33291;46.222;26.460;2023-06-22T05:12:58;11.38;;;8.80;;
47555;SDS011;33291;46.222;26.460;2023-06-22T05:15:23;9.43;;;7.78;;
47555;SDS011;33291;46.222;26.460;2023-06-22T05:17:53;9.25;;;8.35;;
47555;SDS011;33291;46.222;26.460;2023-06-22T05:20:18;10.05;;;7.30;;
47555;SDS011;33291;46.222;26.460;2023-06-22T05:22:44;13.07;;;8.48;;
47555;SDS011;33291;46.222;26.460;2023-06-22T05:25:10;9.75;;;8.23;;
47555;SDS011;33291;46.222;26.460;2023-06-22T05:27:36;10.63;;;8.07;;
47555;SDS011;33291;46.222;26.460;2023-06-22T05:30:05;11.55;;;8.20;;
47555;SDS011;33291;46.222;26.460;2023-06-22T05:32:34;11.35;;;7.95;;
47555;SDS011;33291;46.222;26.460;2023-06-22T05:35:00;9.30;;;8.10;;
47555;SDS011;33291;46.222;26.460;2023-06-22T05:37:26;11.60;;;8.65;;
47555;SDS011;33291;46.222;26.460;2023-06-22T05:39:53;11.00;;;8.32;;
47555;SDS011;33291;46.222;26.460;2023-06-22T05:42:19;10.02;;;8.18;;
47555;SDS011;33291;46.222;26.460;2023-06-22T05:44:44;11.73;;;7.35;;
47555;SDS011;33291;46.222;26.460;2023-06-22T05:47:10;14.93;;;8.10;;
47555;SDS011;33291;46.222;26.460;2023-06-22T05:49:35;9.30;;;8.32;;
47555;SDS011;33291;46.222;26.460;2023-06-22T05:52:00;9.70;;;8.07;;
47555;SDS011;33291;46.222;26.460;2023-06-22T05:54:29;11.48;;;7.75;;
47555;SDS011;33291;46.222;26.460;2023-06-22T05:56:55;10.60;;;8.02;;
47555;SDS011;33291;46.222;26.460;2023-06-22T05:59:20;10.43;;;8.95;;
47555;SDS011;33291;46.222;26.460;2023-06-22T06:01:46;16.17;;;9.63;;
47555;SDS011;33291;46.222;26.460;2023-06-22T06:04:15;21.55;;;12.40;;
47555;SDS011;33291;46.222;26.460;2023-06-22T06:06:43;18.52;;;11.35;;
47555;SDS011;33291;46.222;26.460;2023-06-22T06:09:09;14.85;;;9.23;;
47555;SDS011;33291;46.222;26.460;2023-06-22T06:11:36;15.50;;;9.15;;
47555;SDS011;33291;46.222;26.460;2023-06-22T06:14:02;12.30;;;8.50;;
47555;SDS011;33291;46.222;26.460;2023-06-22T06:16:27;11.27;;;8.57;;
47555;SDS011;33291;46.222;26.460;2023-06-22T06:18:53;11.90;;;8.10;;
47555;SDS011;33291;46.222;26.460;2023-06-22T06:21:20;15.27;;;9.02;;
47555;SDS011;33291;46.222;26.460;2023-06-22T06:23:46;11.68;;;8.95;;
47555;SDS011;33291;46.222;26.460;2023-06-22T06:26:12;13.80;;;9.30;;
47555;SDS011;33291;46.222;26.460;2023-06-22T06:28:37;19.80;;;9.98;;
47555;SDS011;33291;46.222;26.460;2023-06-22T06:31:03;14.52;;;9.98;;
47555;SDS011;33291;46.222;26.460;2023-06-22T06:33:32;16.15;;;9.95;;
47555;SDS011;33291;46.222;26.460;2023-06-22T06:35:57;15.35;;;9.13;;
47555;SDS011;33291;46.222;26.460;2023-06-22T06:38:23;16.38;;;9.18;;
47555;SDS011;33291;46.222;26.460;2023-06-22T06:40:49;14.90;;;9.52;;
47555;SDS011;33291;46.222;26.460;2023-06-22T06:43:14;12.05;;;9.27;;
47555;SDS011;33291;46.222;26.460;2023-06-22T06:45:39;13.43;;;7.68;;
47555;SDS011;33291;46.222;26.460;2023-06-22T06:48:05;8.63;;;6.93;;
47555;SDS011;33291;46.222;26.460;2023-06-22T06:50:30;9.18;;;7.18;;
47555;SDS011;33291;46.222;26.460;2023-06-22T06:52:56;11.82;;;7.22;;
47555;SDS011;33291;46.222;26.460;2023-06-22T06:55:24;9.13;;;6.97;;
47555;SDS011;33291;46.222;26.460;2023-06-22T06:57:50;14.43;;;7.22;;
47555;SDS011;33291;46.222;26.460;2023-06-22T07:00:17;8.57;;;6.40;;
47555;SDS011;33291;46.222;26.460;2023-06-22T07:02:43;9.52;;;6.97;;
47555;SDS011;33291;46.222;26.460;2023-06-22T07:05:10;8.50;;;6.47;;
47555;SDS011;33291;46.222;26.460;2023-06-22T07:07:37;6.53;;;5.65;;
47555;SDS011;33291;46.222;26.460;2023-06-22T07:10:02;7.80;;;4.88;;
47555;SDS011;33291;46.222;26.460;2023-06-22T07:12:29;8.05;;;6.10;;
47555;SDS011;33291;46.222;26.460;2023-06-22T07:14:57;8.65;;;6.07;;
47555;SDS011;33291;46.222;26.460;2023-06-22T07:17:29;7.20;;;5.70;;
47555;SDS011;33291;46.222;26.460;2023-06-22T07:19:55;7.15;;;6.25;;
47555;SDS011;33291;46.222;26.460;2023-06-22T07:22:20;6.20;;;5.53;;
47555;SDS011;33291;46.222;26.460;2023-06-22T07:24:46;7.30;;;5.03;;
47555;SDS011;33291;46.222;26.460;2023-06-22T07:27:11;10.68;;;6.00;;
47555;SDS011;33291;46.222;26.460;2023-06-22T07:29:37;8.15;;;6.38;;
47555;SDS011;33291;46.222;26.460;2023-06-22T07:32:05;11.23;;;6.25;;
47555;SDS011;33291;46.222;26.460;2023-06-22T07:34:31;7.47;;;6.18;;
47555;SDS011;33291;46.222;26.460;2023-06-22T07:36:56;10.15;;;6.03;;
47555;SDS011;33291;46.222;26.460;2023-06-22T07:39:22;6.32;;;5.55;;
47555;SDS011;33291;46.222;26.460;2023-06-22T07:41:50;7.78;;;6.97;;
47555;SDS011;33291;46.222;26.460;2023-06-22T07:44:16;6.70;;;5.85;;
47555;SDS011;33291;46.222;26.460;2023-06-22T07:46:41;5.93;;;5.32;;
47555;SDS011;33291;46.222;26.460;2023-06-22T07:49:07;5.78;;;4.90;;
47555;SDS011;33291;46.222;26.460;2023-06-22T07:51:35;6.43;;;5.60;;
47555;SDS011;33291;46.222;26.460;2023-06-22T07:54:01;8.95;;;5.82;;
47555;SDS011;33291;46.222;26.460;2023-06-22T07:56:26;7.30;;;5.32;;
47555;SDS011;33291;46.222;26.460;2023-06-22T07:58:52;7.15;;;5.95;;
47555;SDS011;33291;46.222;26.460;2023-06-22T08:01:18;6.00;;;5.38;;
47555;SDS011;33291;46.222;26.460;2023-06-22T08:03:47;6.03;;;5.32;;
47555;SDS011;33291;46.222;26.460;2023-06-22T08:06:13;6.05;;;5.45;;
47555;SDS011;33291;46.222;26.460;2023-06-22T08:08:39;5.75;;;5.20;;
47555;SDS011;33291;46.222;26.460;2023-06-22T08:11:05;5.45;;;4.65;;
47555;SDS011;33291;46.222;26.460;2023-06-22T08:13:31;9.48;;;5.45;;
47555;SDS011;33291;46.222;26.460;2023-06-22T08:15:56;9.95;;;5.15;;
47555;SDS011;33291;46.222;26.460;2023-06-22T08:18:22;7.18;;;4.95;;
47555;SDS011;33291;46.222;26.460;2023-06-22T08:20:47;7.15;;;5.10;;
47555;SDS011;33291;46.222;26.460;2023-06-22T08:23:13;6.82;;;6.03;;
47555;SDS011;33291;46.222;26.460;2023-06-22T08:25:38;6.43;;;5.38;;
47555;SDS011;33291;46.222;26.460;2023-06-22T08:28:04;9.45;;;6.32;;
47555;SDS011;33291;46.222;26.460;2023-06-22T08:30:30;7.22;;;5.90;;
47555;SDS011;33291;46.222;26.460;2023-06-22T08:32:55;8.70;;;5.38;;
47555;SDS011;33291;46.222;26.460;2023-06-22T08:35:24;8.20;;;5.50;;
47555;SDS011;33291;46.222;26.460;2023-06-22T08:37:50;6.55;;;5.82;;
47555;SDS011;33291;46.222;26.460;2023-06-22T08:40:17;9.63;;;6.45;;
47555;SDS011;33291;46.222;26.460;2023-06-22T08:42:45;8.65;;;5.95;;
47555;SDS011;33291;46.222;26.460;2023-06-22T08:45:11;7.53;;;6.18;;
47555;SDS011;33291;46.222;26.460;2023-06-22T08:47:37;5.90;;;5.30;;
47555;SDS011;33291;46.222;26.460;2023-06-22T08:50:02;7.88;;;6.03;;
47555;SDS011;33291;46.222;26.460;2023-06-22T08:52:28;9.25;;;5.68;;
47555;SDS011;33291;46.222;26.460;2023-06-22T08:54:54;6.18;;;5.68;;
47555;SDS011;33291;46.222;26.460;2023-06-22T08:57:20;8.77;;;5.95;;
47555;SDS011;33291;46.222;26.460;2023-06-22T08:59:46;7.03;;;5.85;;
47555;SDS011;33291;46.222;26.460;2023-06-22T09:02:11;6.38;;;5.65;;
47555;SDS011;33291;46.222;26.460;2023-06-22T09:04:37;7.38;;;5.90;;
47555;SDS011;33291;46.222;26.460;2023-06-22T09:07:02;6.13;;;5.53;;
47555;SDS011;33291;46.222;26.460;2023-06-22T09:09:28;8.98;;;5.68;;
47555;SDS011;33291;46.222;26.460;2023-06-22T09:11:54;11.18;;;6.30;;
47555;SDS011;33291;46.222;26.460;2023-06-22T09:14:19;10.95;;;6.45;;
47555;SDS011;33291;46.222;26.460;2023-06-22T09:16:45;8.73;;;6.30;;
47555;SDS011;33291;46.222;26.460;2023-06-22T09:19:11;11.90;;;6.30;;
47555;SDS011;33291;46.222;26.460;2023-06-22T09:21:36;7.25;;;6.55;;
47555;SDS011;33291;46.222;26.460;2023-06-22T09:24:02;9.75;;;6.35;;
47555;SDS011;33291;46.222;26.460;2023-06-22T09:26:28;6.18;;;5.57;;
47555;SDS011;33291;46.222;26.460;2023-06-22T09:28:53;6.50;;;5.90;;
47555;SDS011;33291;46.222;26.460;2023-06-22T09:31:19;7.03;;;5.38;;
47555;SDS011;33291;46.222;26.460;2023-06-22T09:33:50;6.28;;;5.65;;
47555;SDS011;33291;46.222;26.460;2023-06-22T09:36:17;7.80;;;5.63;;
47555;SDS011;33291;46.222;26.460;2023-06-22T09:38:42;6.03;;;5.20;;
47555;SDS011;33291;46.222;26.460;2023-06-22T09:41:08;6.85;;;6.13;;
47555;SDS011;33291;46.222;26.460;2023-06-22T09:43:33;7.47;;;6.40;;
47555;SDS011;33291;46.222;26.460;2023-06-22T09:46:02;7.90;;;6.32;;
47555;SDS011;33291;46.222;26.460;2023-06-22T09:48:28;6.65;;;6.05;;
47555;SDS011;33291;46.222;26.460;2023-06-22T09:50:55;6.63;;;5.90;;
47555;SDS011;33291;46.222;26.460;2023-06-22T09:53:20;6.65;;;5.93;;
47555;SDS011;33291;46.222;26.460;2023-06-22T09:55:46;7.30;;;6.20;;
47555;SDS011;33291;46.222;26.460;2023-06-22T09:58:12;9.05;;;6.15;;
47555;SDS011;33291;46.222;26.460;2023-06-22T10:00:37;7.47;;;5.57;;
47555;SDS011;33291;46.222;26.460;2023-06-22T10:03:02;7.03;;;6.15;;
47555;SDS011;33291;46.222;26.460;2023-06-22T10:05:28;9.35;;;6.22;;
47555;SDS011;33291;46.222;26.460;2023-06-22T10:07:53;11.63;;;6.22;;
47555;SDS011;33291;46.222;26.460;2023-06-22T10:10:19;8.85;;;6.40;;
47555;SDS011;33291;46.222;26.460;2023-06-22T10:12:46;9.27;;;6.10;;
47555;SDS011;33291;46.222;26.460;2023-06-22T10:15:20;9.77;;;6.15;;
47555;SDS011;33291;46.222;26.460;2023-06-22T10:17:46;7.80;;;6.43;;
47555;SDS011;33291;46.222;26.460;2023-06-22T10:20:12;8.45;;;6.85;;
47555;SDS011;33291;46.222;26.460;2023-06-22T10:22:39;11.02;;;6.53;;
47555;SDS011;33291;46.222;26.460;2023-06-22T10:25:06;6.97;;;6.30;;
47555;SDS011;33291;46.222;26.460;2023-06-22T10:27:32;9.55;;;6.20;;
47555;SDS011;33291;46.222;26.460;2023-06-22T10:29:57;10.80;;;6.32;;
47555;SDS011;33291;46.222;26.460;2023-06-22T10:32:23;6.78;;;6.10;;
47555;SDS011;33291;46.222;26.460;2023-06-22T10:34:48;8.23;;;7.05;;
47555;SDS011;33291;46.222;26.460;2023-06-22T10:37:14;7.22;;;5.80;;
47555;SDS011;33291;46.222;26.460;2023-06-22T10:39:39;6.50;;;5.90;;
47555;SDS011;33291;46.222;26.460;2023-06-22T10:42:05;9.95;;;6.72;;
47555;SDS011;33291;46.222;26.460;2023-06-22T10:44:30;6.97;;;6.28;;
47555;SDS011;33291;46.222;26.460;2023-06-22T10:46:56;7.25;;;6.50;;
47555;SDS011;33291;46.222;26.460;2023-06-22T10:49:21;7.32;;;5.65;;
47555;SDS011;33291;46.222;26.460;2023-06-22T10:51:47;7.45;;;5.63;;
47555;SDS011;33291;46.222;26.460;2023-06-22T10:54:12;9.93;;;6.10;;
47555;SDS011;33291;46.222;26.460;2023-06-22T10:56:39;7.50;;;5.28;;
47555;SDS011;33291;46.222;26.460;2023-06-22T10:59:05;7.43;;;5.85;;
47555;SDS011;33291;46.222;26.460;2023-06-22T11:01:30;7.80;;;6.10;;
47555;SDS011;33291;46.222;26.460;2023-06-22T11:03:56;10.13;;;5.88;;
47555;SDS011;33291;46.222;26.460;2023-06-22T11:06:22;6.53;;;5.60;;
47555;SDS011;33291;46.222;26.460;2023-06-22T11:08:47;7.68;;;5.78;;
47555;SDS011;33291;46.222;26.460;2023-06-22T11:11:13;7.78;;;6.25;;
47555;SDS011;33291;46.222;26.460;2023-06-22T11:13:38;6.95;;;6.25;;
47555;SDS011;33291;46.222;26.460;2023-06-22T11:16:04;10.02;;;5.38;;
47555;SDS011;33291;46.222;26.460;2023-06-22T11:18:30;6.75;;;6.05;;
47555;SDS011;33291;46.222;26.460;2023-06-22T11:20:58;6.63;;;5.85;;
47555;SDS011;33291;46.222;26.460;2023-06-22T11:23:24;6.18;;;5.57;;
47555;SDS011;33291;46.222;26.460;2023-06-22T11:25:51;7.50;;;6.13;;
47555;SDS011;33291;46.222;26.460;2023-06-22T11:28:16;7.00;;;6.15;;
47555;SDS011;33291;46.222;26.460;2023-06-22T11:30:42;7.07;;;5.55;;
47555;SDS011;33291;46.222;26.460;2023-06-22T11:33:07;6.07;;;5.47;;
47555;SDS011;33291;46.222;26.460;2023-06-22T11:35:33;7.45;;;6.00;;
47555;SDS011;33291;46.222;26.460;2023-06-22T11:37:58;6.78;;;6.10;;
47555;SDS011;33291;46.222;26.460;2023-06-22T11:40:24;7.07;;;5.40;;
47555;SDS011;33291;46.222;26.460;2023-06-22T11:42:49;6.88;;;5.65;;
47555;SDS011;33291;46.222;26.460;2023-06-22T11:45:15;7.13;;;6.28;;
47555;SDS011;33291;46.222;26.460;2023-06-22T11:47:42;8.05;;;5.65;;
47555;SDS011;33291;46.222;26.460;2023-06-22T11:50:08;5.80;;;4.90;;
47555;SDS011;33291;46.222;26.460;2023-06-22T11:52:33;9.35;;;4.93;;
47555;SDS011;33291;46.222;26.460;2023-06-22T11:55:01;6.22;;;5.22;;
47555;SDS011;33291;46.222;26.460;2023-06-22T11:57:28;5.97;;;5.20;;
47555;SDS011;33291;46.222;26.460;2023-06-22T11:59:54;6.10;;;4.82;;
47555;SDS011;33291;46.222;26.460;2023-06-22T12:02:19;5.60;;;4.97;;
47555;SDS011;33291;46.222;26.460;2023-06-22T12:04:45;7.47;;;5.18;;
47555;SDS011;33291;46.222;26.460;2023-06-22T12:07:11;6.70;;;5.38;;
47555;SDS011;33291;46.222;26.460;2023-06-22T12:09:36;8.63;;;5.05;;
47555;SDS011;33291;46.222;26.460;2023-06-22T12:12:02;8.05;;;5.50;;
47555;SDS011;33291;46.222;26.460;2023-06-22T12:14:28;6.65;;;5.50;;
47555;SDS011;33291;46.222;26.460;2023-06-22T12:16:54;6.25;;;5.57;;
47555;SDS011;33291;46.222;26.460;2023-06-22T12:19:19;5.90;;;5.28;;
47555;SDS011;33291;46.222;26.460;2023-06-22T12:21:44;12.85;;;5.88;;
47555;SDS011;33291;46.222;26.460;2023-06-22T12:24:11;12.00;;;6.05;;
47555;SDS011;33291;46.222;26.460;2023-06-22T12:26:36;6.80;;;5.88;;
47555;SDS011;33291;46.222;26.460;2023-06-22T12:29:02;6.53;;;5.78;;
47555;SDS011;33291;46.222;26.460;2023-06-22T12:31:27;6.35;;;5.75;;
47555;SDS011;33291;46.222;26.460;2023-06-22T12:33:53;10.38;;;6.05;;
47555;SDS011;33291;46.222;26.460;2023-06-22T12:36:18;6.90;;;5.38;;
47555;SDS011;33291;46.222;26.460;2023-06-22T12:38:44;9.77;;;5.88;;
47555;SDS011;33291;46.222;26.460;2023-06-22T12:41:09;7.10;;;5.47;;
47555;SDS011;33291;46.222;26.460;2023-06-22T12:43:34;6.45;;;5.85;;
47555;SDS011;33291;46.222;26.460;2023-06-22T12:46:00;6.38;;;5.50;;
47555;SDS011;33291;46.222;26.460;2023-06-22T12:48:26;8.98;;;5.53;;
47555;SDS011;33291;46.222;26.460;2023-06-22T12:50:52;8.02;;;5.88;;
47555;SDS011;33291;46.222;26.460;2023-06-22T12:53:18;9.00;;;6.55;;
47555;SDS011;33291;46.222;26.460;2023-06-22T12:55:43;6.05;;;5.13;;
47555;SDS011;33291;46.222;26.460;2023-06-22T12:58:09;7.25;;;6.03;;
47555;SDS011;33291;46.222;26.460;2023-06-22T13:00:34;7.63;;;6.10;;
47555;SDS011;33291;46.222;26.460;2023-06-22T13:03:00;7.15;;;5.22;;
47555;SDS011;33291;46.222;26.460;2023-06-22T13:05:25;7.57;;;5.70;;
47555;SDS011;33291;46.222;26.460;2023-06-22T13:07:51;7.65;;;6.65;;
47555;SDS011;33291;46.222;26.460;2023-06-22T13:10:17;5.95;;;5.35;;
47555;SDS011;33291;46.222;26.460;2023-06-22T13:12:42;5.97;;;5.35;;
47555;SDS011;33291;46.222;26.460;2023-06-22T13:15:08;5.95;;;5.43;;
47555;SDS011;33291;46.222;26.460;2023-06-22T13:17:33;6.38;;;5.28;;
47555;SDS011;33291;46.222;26.460;2023-06-22T13:19:59;5.47;;;4.97;;
47555;SDS011;33291;46.222;26.460;2023-06-22T13:22:31;8.05;;;5.55;;
47555;SDS011;33291;46.222;26.460;2023-06-22T13:24:59;6.07;;;4.88;;
47555;SDS011;33291;46.222;26.460;2023-06-22T13:27:25;11.20;;;5.70;;
47555;SDS011;33291;46.222;26.460;2023-06-22T13:29:50;6.25;;;5.65;;
47555;SDS011;33291;46.222;26.460;2023-06-22T13:32:16;6.28;;;5.65;;
47555;SDS011;33291;46.222;26.460;2023-06-22T13:34:42;9.07;;;5.60;;
47555;SDS011;33291;46.222;26.460;2023-06-22T13:37:07;13.18;;;5.88;;
47555;SDS011;33291;46.222;26.460;2023-06-22T13:39:33;5.85;;;5.18;;
47555;SDS011;33291;46.222;26.460;2023-06-22T13:41:58;6.30;;;5.47;;
47555;SDS011;33291;46.222;26.460;2023-06-22T13:44:24;6.63;;;5.75;;
47555;SDS011;33291;46.222;26.460;2023-06-22T13:46:53;6.18;;;5.10;;
47555;SDS011;33291;46.222;26.460;2023-06-22T13:49:19;7.00;;;5.72;;
47555;SDS011;33291;46.222;26.460;2023-06-22T13:51:45;9.38;;;5.97;;
47555;SDS011;33291;46.222;26.460;2023-06-22T13:54:13;13.43;;;5.88;;
47555;SDS011;33291;46.222;26.460;2023-06-22T13:56:38;7.50;;;5.95;;
47555;SDS011;33291;46.222;26.460;2023-06-22T13:59:04;9.13;;;6.20;;
47555;SDS011;33291;46.222;26.460;2023-06-22T14:01:29;5.97;;;5.38;;
47555;SDS011;33291;46.222;26.460;2023-06-22T14:03:54;6.82;;;5.95;;
47555;SDS011;33291;46.222;26.460;2023-06-22T14:06:20;7.20;;;6.47;;
47555;SDS011;33291;46.222;26.460;2023-06-22T14:08:45;12.30;;;6.65;;
47555;SDS011;33291;46.222;26.460;2023-06-22T14:11:11;12.57;;;5.88;;
47555;SDS011;33291;46.222;26.460;2023-06-22T14:13:36;11.45;;;6.25;;
47555;SDS011;33291;46.222;26.460;2023-06-22T14:16:02;11.93;;;6.00;;
47555;SDS011;33291;46.222;26.460;2023-06-22T14:18:29;5.90;;;5.30;;
47555;SDS011;33291;46.222;26.460;2023-06-22T14:20:55;7.20;;;6.20;;
47555;SDS011;33291;46.222;26.460;2023-06-22T14:23:20;7.78;;;5.80;;
47555;SDS011;33291;46.222;26.460;2023-06-22T14:25:45;10.50;;;6.50;;
47555;SDS011;33291;46.222;26.460;2023-06-22T14:28:11;7.07;;;6.20;;
47555;SDS011;33291;46.222;26.460;2023-06-22T14:30:36;6.35;;;5.70;;
47555;SDS011;33291;46.222;26.460;2023-06-22T14:33:02;7.20;;;6.30;;